createdAt,value
2023-04-03T00:01:12.441Z,6.60
2023-04-03T00:03:40.293Z,6.70
2023-04-03T00:06:09.678Z,6.70
2023-04-03T00:08:39.737Z,6.60
2023-04-03T00:11:08.435Z,6.60
2023-04-03T00:13:36.606Z,6.60
2023-04-03T00:16:05.218Z,6.60
2023-04-03T00:18:33.476Z,6.50
2023-04-03T00:21:01.462Z,6.60
2023-04-03T00:23:29.364Z,6.60
2023-04-03T00:25:58.441Z,6.60
2023-04-03T00:28:26.422Z,6.50
2023-04-03T00:30:54.308Z,6.40
2023-04-03T00:33:22.870Z,6.50
2023-04-03T00:35:51.461Z,6.60
2023-04-03T00:38:19.383Z,6.50
2023-04-03T00:40:49.482Z,6.60
2023-04-03T00:43:20.862Z,6.70
2023-04-03T00:45:50.091Z,6.50
2023-04-03T00:48:20.405Z,6.50
2023-04-03T00:50:49.118Z,6.60
2023-04-03T00:53:21.705Z,6.50
2023-04-03T00:55:51.488Z,6.50
2023-04-03T00:58:22.816Z,6.30
2023-04-03T01:00:57.212Z,6.50
2023-04-03T01:03:24.974Z,6.50
2023-04-03T01:05:52.845Z,6.40
2023-04-03T01:08:20.679Z,6.40
2023-04-03T01:10:48.455Z,6.20
2023-04-03T01:13:23.618Z,6.40
2023-04-03T01:15:51.345Z,6.20
2023-04-03T01:18:19.066Z,6.30
2023-04-03T01:21:15.976Z,6.30
2023-04-03T01:24:22.068Z,6.40
2023-04-03T01:26:50.422Z,6.30
2023-04-03T01:29:20.233Z,6.20
2023-04-03T01:31:57.672Z,6.20
2023-04-03T01:34:25.943Z,6.20
2023-04-03T01:36:54.394Z,6.20
2023-04-03T01:39:22.349Z,6.00
2023-04-03T01:41:50.747Z,6.00
2023-04-03T01:44:18.499Z,6.00
2023-04-03T01:46:46.197Z,6.00
2023-04-03T01:49:15.394Z,5.90
2023-04-03T01:51:43.109Z,5.80
2023-04-03T01:54:11.313Z,6.00
2023-04-03T01:56:40.008Z,5.90
2023-04-03T01:59:07.821Z,5.80
2023-04-03T02:01:35.573Z,5.90
2023-04-03T02:04:03.425Z,5.90
2023-04-03T02:06:32.590Z,5.90
2023-04-03T02:09:00.290Z,6.00
2023-04-03T02:11:28.131Z,5.90
2023-04-03T02:13:55.990Z,5.90
2023-04-03T02:16:23.736Z,5.80
2023-04-03T02:18:51.956Z,5.80
2023-04-03T02:21:19.719Z,5.70
2023-04-03T02:23:48.797Z,5.70
2023-04-03T02:26:17.880Z,5.70
2023-04-03T02:28:45.835Z,5.80
2023-04-03T02:31:13.648Z,5.70
2023-04-03T02:33:42.093Z,5.70
2023-04-03T02:36:10.473Z,5.80
2023-04-03T02:38:38.595Z,5.70
2023-04-03T02:41:10.016Z,5.80
2023-04-03T02:43:38.609Z,5.70
2023-04-03T02:46:06.674Z,5.60
2023-04-03T02:48:34.595Z,5.70
2023-04-03T02:51:02.436Z,5.70
2023-04-03T02:53:30.256Z,5.60
2023-04-03T02:55:57.971Z,5.50
2023-04-03T02:58:27.054Z,5.40
2023-04-03T03:00:55.736Z,5.50
2023-04-03T03:03:23.938Z,5.40
2023-04-03T03:05:51.600Z,5.30
2023-04-03T03:08:21.161Z,5.30
2023-04-03T03:10:48.879Z,5.30
2023-04-03T03:13:16.615Z,5.30
2023-04-03T03:15:45.817Z,5.30
2023-04-03T03:18:13.517Z,5.30
2023-04-03T03:20:41.297Z,5.40
2023-04-03T03:23:09.092Z,5.30
2023-04-03T03:25:40.181Z,5.30
2023-04-03T03:28:08.259Z,5.50
2023-04-03T03:30:36.436Z,5.40
2023-04-03T03:33:05.566Z,5.30
2023-04-03T03:35:33.441Z,5.20
2023-04-03T03:38:01.299Z,5.20
2023-04-03T03:40:29.001Z,5.20
2023-04-03T03:42:56.700Z,5.10
2023-04-03T03:45:24.573Z,5.00
2023-04-03T03:47:52.383Z,5.10
2023-04-03T03:50:21.541Z,5.10
2023-04-03T03:52:49.335Z,5.00
2023-04-03T03:55:17.307Z,5.00
2023-04-03T03:57:45.024Z,5.00
2023-04-03T04:00:13.563Z,5.10
2023-04-03T04:02:41.380Z,5.10
2023-04-03T04:05:09.341Z,5.10
2023-04-03T04:07:38.406Z,4.90
2023-04-03T04:10:07.090Z,4.90
2023-04-03T04:12:36.528Z,4.90
2023-04-03T04:15:04.562Z,4.90
2023-04-03T04:17:34.261Z,4.90
2023-04-03T04:20:01.996Z,5.00
2023-04-03T04:22:29.748Z,4.90
2023-04-03T04:24:58.813Z,4.80
2023-04-03T04:27:26.525Z,5.00
2023-04-03T04:29:54.240Z,4.90
2023-04-03T04:32:22.017Z,4.80
2023-04-03T04:34:49.755Z,4.90
2023-04-03T04:37:17.599Z,4.70
2023-04-03T04:39:45.255Z,4.80
2023-04-03T04:42:16.717Z,4.80
2023-04-03T04:44:45.799Z,4.80
2023-04-03T04:47:13.505Z,4.90
2023-04-03T04:49:41.450Z,4.80
2023-04-03T04:52:09.187Z,4.80
2023-04-03T04:54:36.870Z,4.70
2023-04-03T04:57:04.612Z,4.70
2023-04-03T04:59:33.721Z,4.80
2023-04-03T05:02:01.666Z,4.70
2023-04-03T05:04:29.581Z,4.70
2023-04-03T05:06:57.356Z,4.80
2023-04-03T05:09:25.015Z,4.90
2023-04-03T05:11:52.746Z,5.00
2023-04-03T05:14:20.502Z,4.80
2023-04-03T05:16:51.523Z,4.80
2023-04-03T05:19:20.774Z,4.80
2023-04-03T05:21:48.614Z,4.80
2023-04-03T05:24:17.260Z,4.80
2023-04-03T05:26:45.201Z,4.80
2023-04-03T05:29:13.160Z,4.90
2023-04-03T05:31:41.034Z,4.90
2023-04-03T05:34:10.359Z,4.90
2023-04-03T05:36:38.175Z,5.00
2023-04-03T05:39:06.073Z,5.00
2023-04-03T05:41:34.091Z,5.00
2023-04-03T05:44:01.920Z,5.10
2023-04-03T05:46:29.691Z,5.10
2023-04-03T05:48:57.507Z,5.00
2023-04-03T05:51:30.881Z,5.00
2023-04-03T05:54:04.768Z,5.00
2023-04-03T05:56:32.484Z,5.00
2023-04-03T05:59:00.333Z,5.00
2023-04-03T06:01:28.220Z,4.90
2023-04-03T06:03:56.914Z,5.00
2023-04-03T06:06:26.704Z,5.00
2023-04-03T06:08:54.520Z,5.10
2023-04-03T06:11:23.286Z,5.20
2023-04-03T06:13:51.007Z,5.20
2023-04-03T06:16:19.822Z,5.20
2023-04-03T06:18:47.674Z,5.20
2023-04-03T06:21:15.501Z,5.40
2023-04-03T06:23:44.597Z,5.60
2023-04-03T06:26:12.707Z,5.70
2023-04-03T06:28:40.447Z,5.80
2023-04-03T06:31:08.231Z,5.70
2023-04-03T06:33:36.357Z,6.00
2023-04-03T06:36:07.586Z,6.10
2023-04-03T06:38:36.720Z,6.20
2023-04-03T06:41:06.682Z,6.30
2023-04-03T06:43:35.028Z,6.40
2023-04-03T06:46:02.898Z,6.50
2023-04-03T06:48:31.041Z,6.70
2023-04-03T06:50:58.822Z,6.60
2023-04-03T06:53:27.188Z,6.80
2023-04-03T06:55:55.694Z,7.00
2023-04-03T06:58:24.829Z,7.00
2023-04-03T07:00:52.902Z,7.30
2023-04-03T07:03:20.642Z,7.30
2023-04-03T07:05:48.486Z,7.40
2023-04-03T07:08:16.333Z,7.50
2023-04-03T07:10:44.068Z,7.60
2023-04-03T07:13:11.983Z,7.80
2023-04-03T07:15:41.120Z,8.10
2023-04-03T07:18:09.336Z,8.20
2023-04-03T07:20:37.281Z,8.40
2023-04-03T07:23:05.026Z,8.60
2023-04-03T07:25:34.685Z,8.70
2023-04-03T07:28:02.870Z,9.00
2023-04-03T07:30:30.621Z,9.10
2023-04-03T07:32:59.822Z,9.40
2023-04-03T07:35:27.579Z,9.40
2023-04-03T07:37:55.408Z,9.50
2023-04-03T07:40:23.158Z,9.70
2023-04-03T07:42:51.150Z,9.80
2023-04-03T07:45:20.703Z,10.00
2023-04-03T07:47:48.990Z,10.10
2023-04-03T07:50:18.426Z,10.50
2023-04-03T07:52:46.543Z,10.60
2023-04-03T07:55:14.305Z,10.80
2023-04-03T07:57:42.259Z,10.70
2023-04-03T08:00:11.288Z,10.70
2023-04-03T08:02:39.144Z,10.70
2023-04-03T08:05:07.848Z,10.80
2023-04-03T08:07:38.923Z,10.70
2023-04-03T08:10:07.839Z,10.80
2023-04-03T08:12:35.748Z,10.60
2023-04-03T08:15:03.536Z,10.50
2023-04-03T08:17:31.424Z,10.40
2023-04-03T08:19:59.338Z,10.40
2023-04-03T08:22:27.285Z,10.30
2023-04-03T08:24:59.393Z,10.20
2023-04-03T08:27:28.533Z,10.00
2023-04-03T08:29:56.442Z,9.80
2023-04-03T08:32:24.311Z,10.00
2023-04-03T08:34:52.104Z,10.10
2023-04-03T08:37:20.090Z,9.80
2023-04-03T08:39:48.912Z,9.80
2023-04-03T08:42:24.483Z,10.20
2023-04-03T08:44:58.087Z,10.40
2023-04-03T08:47:32.332Z,10.70
2023-04-03T08:50:02.253Z,10.70
2023-04-03T08:52:37.726Z,10.90
2023-04-03T08:55:09.531Z,10.80
2023-04-03T08:57:43.672Z,11.00
2023-04-03T09:00:19.975Z,11.40
2023-04-03T09:02:49.419Z,11.30
2023-04-03T09:05:19.241Z,11.30
2023-04-03T09:07:50.116Z,11.30
2023-04-03T09:10:25.273Z,11.50
2023-04-03T09:13:01.765Z,11.70
2023-04-03T09:15:38.480Z,11.40
2023-04-03T09:18:16.820Z,11.80
2023-04-03T09:20:51.989Z,11.80
2023-04-03T09:23:26.465Z,11.90
2023-04-03T09:25:59.947Z,12.00
2023-04-03T09:28:38.894Z,12.30
2023-04-03T09:31:21.481Z,12.20
2023-04-03T09:33:51.320Z,12.40
2023-04-03T09:36:41.161Z,12.50
2023-04-03T09:39:13.840Z,12.40
2023-04-03T09:41:41.620Z,12.30
2023-04-03T09:44:23.718Z,12.20
2023-04-03T09:46:51.732Z,12.30
2023-04-03T09:49:20.756Z,12.40
2023-04-03T09:51:48.621Z,12.30
2023-04-03T09:54:41.741Z,12.40
2023-04-03T09:57:15.201Z,12.50
2023-04-03T09:59:48.344Z,12.10
2023-04-03T10:02:32.078Z,12.00
2023-04-03T10:05:09.609Z,11.80
2023-04-03T10:07:40.259Z,12.00
2023-04-03T10:10:20.977Z,12.00
2023-04-03T10:12:49.913Z,11.80
2023-04-03T10:15:21.045Z,11.80
2023-04-03T10:17:58.888Z,11.60
2023-04-03T10:20:35.155Z,11.90
2023-04-03T10:23:16.863Z,12.20
2023-04-03T10:25:56.066Z,12.20
2023-04-03T10:28:31.430Z,12.60
2023-04-03T10:31:07.598Z,12.60
2023-04-03T10:33:45.739Z,12.70
2023-04-03T10:36:21.523Z,12.60
2023-04-03T10:38:57.356Z,12.20
2023-04-03T10:41:34.593Z,12.20
2023-04-03T10:44:11.566Z,12.00
2023-04-03T10:46:45.889Z,12.10
2023-04-03T10:49:39.127Z,11.70
2023-04-03T10:52:18.643Z,11.80
2023-04-03T10:54:51.551Z,11.30
2023-04-03T10:57:20.601Z,11.30
2023-04-03T10:59:52.764Z,11.50
2023-04-03T11:02:30.813Z,11.50
2023-04-03T11:05:03.627Z,11.50
2023-04-03T11:07:38.918Z,11.40
2023-04-03T11:10:15.870Z,11.30
2023-04-03T11:12:47.133Z,11.30
2023-04-03T11:15:18.929Z,11.40
2023-04-03T11:17:54.076Z,11.50
2023-04-03T11:20:28.563Z,11.20
2023-04-03T11:23:03.855Z,11.20
2023-04-03T11:25:33.784Z,11.50
2023-04-03T11:28:03.707Z,11.50
2023-04-03T11:30:38.515Z,11.60
2023-04-03T11:33:21.758Z,11.80
2023-04-03T11:35:53.684Z,11.80
2023-04-03T11:38:25.722Z,11.40
2023-04-03T11:40:55.751Z,11.50
2023-04-03T11:43:27.063Z,11.80
2023-04-03T11:45:59.616Z,11.80
2023-04-03T11:48:56.552Z,11.80
2023-04-03T11:51:45.746Z,11.90
2023-04-03T11:54:51.232Z,11.90
2023-04-03T11:57:47.097Z,12.10
2023-04-03T12:00:54.081Z,12.20
2023-04-03T12:03:53.552Z,12.50
2023-04-03T12:06:57.749Z,12.30
2023-04-03T12:09:36.810Z,12.80
2023-04-03T12:12:38.846Z,12.60
2023-04-03T12:15:51.738Z,12.70
2023-04-03T12:18:57.556Z,12.70
2023-04-03T12:21:47.255Z,12.60
2023-04-03T12:24:30.582Z,12.80
2023-04-03T12:27:11.540Z,12.70
2023-04-03T12:29:45.572Z,12.60
2023-04-03T12:32:25.174Z,12.40
2023-04-03T12:35:07.368Z,12.20
2023-04-03T12:37:50.306Z,12.20
2023-04-03T12:40:26.729Z,12.50
2023-04-03T12:43:20.989Z,13.00
2023-04-03T12:45:55.974Z,12.50
2023-04-03T12:48:27.292Z,12.80
2023-04-03T12:50:55.996Z,12.60
2023-04-03T12:53:27.715Z,12.60
2023-04-03T12:55:58.184Z,12.70
2023-04-03T12:58:28.210Z,12.60
2023-04-03T13:01:04.185Z,12.80
2023-04-03T13:03:32.789Z,12.80
2023-04-03T13:06:04.809Z,12.70
2023-04-03T13:08:33.198Z,12.50
2023-04-03T13:11:05.600Z,12.30
2023-04-03T13:13:33.424Z,12.30
2023-04-03T13:16:01.742Z,12.70
2023-04-03T13:18:33.271Z,12.90
2023-04-03T13:21:05.596Z,12.90
2023-04-03T13:23:35.368Z,13.00
2023-04-03T13:26:05.539Z,12.60
2023-04-03T13:28:35.068Z,12.70
2023-04-03T13:31:12.612Z,13.00
2023-04-03T13:33:40.842Z,13.10
2023-04-03T13:36:10.891Z,13.10
2023-04-03T13:38:40.692Z,13.50
2023-04-03T13:41:27.326Z,13.70
2023-04-03T13:44:03.355Z,13.70
2023-04-03T13:46:38.218Z,13.70
2023-04-03T13:49:20.680Z,13.90
2023-04-03T13:51:54.245Z,13.50
2023-04-03T13:54:36.225Z,13.40
2023-04-03T13:57:14.662Z,13.20
2023-04-03T13:59:42.523Z,13.50
2023-04-03T14:02:20.112Z,13.70
2023-04-03T14:04:54.075Z,13.40
2023-04-03T14:07:22.354Z,13.30
2023-04-03T14:09:50.512Z,13.40
2023-04-03T14:12:31.233Z,13.20
2023-04-03T14:15:00.512Z,13.20
2023-04-03T14:17:28.940Z,13.00
2023-04-03T14:19:58.340Z,12.90
2023-04-03T14:22:29.316Z,12.80
2023-04-03T14:24:58.451Z,13.00
2023-04-03T14:27:29.931Z,13.00
2023-04-03T14:29:59.752Z,13.10
2023-04-03T14:32:28.117Z,13.20
2023-04-03T14:34:56.262Z,13.40
2023-04-03T14:37:27.384Z,13.80
2023-04-03T14:39:56.171Z,13.60
2023-04-03T14:42:26.771Z,13.60
2023-04-03T14:44:56.207Z,13.50
2023-04-03T14:47:31.711Z,13.70
2023-04-03T14:50:01.324Z,13.50
2023-04-03T14:52:31.958Z,13.60
2023-04-03T14:55:01.291Z,13.30
2023-04-03T14:57:31.463Z,13.00
2023-04-03T15:00:01.718Z,13.00
2023-04-03T15:02:32.036Z,13.00
2023-04-03T15:05:00.952Z,13.20
2023-04-03T15:07:30.473Z,13.50
2023-04-03T15:09:58.229Z,13.20
2023-04-03T15:12:26.127Z,13.20
2023-04-03T15:15:01.809Z,13.10
2023-04-03T15:17:32.141Z,13.10
2023-04-03T15:20:00.477Z,13.30
2023-04-03T15:22:28.244Z,13.30
2023-04-03T15:24:55.931Z,13.30
2023-04-03T15:27:23.698Z,13.70
2023-04-03T15:29:51.466Z,13.80
2023-04-03T15:32:19.131Z,13.60
2023-04-03T15:34:48.256Z,13.40
2023-04-03T15:37:16.019Z,13.00
2023-04-03T15:39:43.801Z,12.80
2023-04-03T15:42:13.754Z,12.50
2023-04-03T15:44:41.596Z,12.50
2023-04-03T15:47:09.549Z,12.40
2023-04-03T15:49:37.598Z,12.30
2023-04-03T15:52:06.734Z,12.40
2023-04-03T15:54:34.438Z,12.20
2023-04-03T15:57:02.270Z,12.20
2023-04-03T15:59:31.758Z,12.30
2023-04-03T16:02:01.873Z,12.50
2023-04-03T16:04:29.780Z,12.50
2023-04-03T16:06:57.761Z,12.60
2023-04-03T16:09:26.855Z,12.50
2023-04-03T16:11:54.556Z,12.60
2023-04-03T16:14:22.299Z,12.80
2023-04-03T16:16:50.736Z,12.90
2023-04-03T16:19:18.603Z,12.90
2023-04-03T16:21:47.580Z,13.20
2023-04-03T16:24:17.229Z,13.50
2023-04-03T16:26:48.171Z,13.50
2023-04-03T16:29:15.939Z,13.50
2023-04-03T16:31:44.809Z,13.20
2023-04-03T16:34:13.413Z,12.70
2023-04-03T16:36:41.385Z,12.50
2023-04-03T16:39:10.994Z,12.40
2023-04-03T16:41:39.012Z,12.50
2023-04-03T16:44:08.871Z,12.40
2023-04-03T16:46:36.649Z,12.10
2023-04-03T16:49:04.804Z,12.20
2023-04-03T16:51:32.711Z,12.20
2023-04-03T16:54:00.674Z,12.10
2023-04-03T16:56:28.773Z,12.10
2023-04-03T16:58:56.656Z,11.90
2023-04-03T17:01:26.077Z,11.90
2023-04-03T17:03:53.939Z,11.80
2023-04-03T17:06:24.376Z,12.00
2023-04-03T17:08:53.763Z,12.00
2023-04-03T17:11:22.977Z,11.90
2023-04-03T17:13:50.849Z,11.90
2023-04-03T17:16:18.851Z,11.80
2023-04-03T17:18:49.076Z,11.90
2023-04-03T17:21:18.192Z,11.90
2023-04-03T17:23:49.029Z,12.00
2023-04-03T17:26:16.734Z,11.90
2023-04-03T17:28:45.615Z,11.80
2023-04-03T17:31:14.655Z,11.70
2023-04-03T17:33:42.374Z,11.70
2023-04-03T17:36:12.776Z,11.70
2023-04-03T17:38:41.208Z,11.60
2023-04-03T17:41:10.115Z,11.60
2023-04-03T17:43:37.878Z,11.50
2023-04-03T17:46:09.646Z,11.50
2023-04-03T17:48:39.174Z,11.50
2023-04-03T17:51:07.820Z,11.50
2023-04-03T17:53:37.774Z,11.20
2023-04-03T17:56:09.477Z,11.20
2023-04-03T17:58:37.272Z,11.20
2023-04-03T18:01:12.829Z,11.20
2023-04-03T18:03:41.225Z,11.20
2023-04-03T18:06:11.504Z,11.20
2023-04-03T18:08:43.392Z,11.10
2023-04-03T18:11:11.735Z,11.10
2023-04-03T18:13:39.663Z,11.10
2023-04-03T18:16:09.386Z,10.90
2023-04-03T18:18:37.459Z,10.90
2023-04-03T18:21:06.170Z,10.90
2023-04-03T18:23:36.073Z,10.90
2023-04-03T18:26:05.821Z,10.90
2023-04-03T18:28:33.940Z,10.90
2023-04-03T18:31:02.459Z,11.00
2023-04-03T18:33:30.509Z,10.90
2023-04-03T18:35:58.283Z,10.90
2023-04-03T18:38:26.018Z,10.80
2023-04-03T18:40:54.202Z,11.00
2023-04-03T18:43:23.370Z,10.90
2023-04-03T18:45:51.233Z,10.80
2023-04-03T18:48:19.220Z,10.70
2023-04-03T18:50:47.072Z,10.80
2023-04-03T18:53:15.227Z,10.70
2023-04-03T18:55:43.144Z,10.70
2023-04-03T18:58:10.888Z,10.60
2023-04-03T19:00:41.505Z,10.50
2023-04-03T19:03:10.639Z,10.50
2023-04-03T19:05:38.591Z,10.50
2023-04-03T19:08:06.724Z,10.50
2023-04-03T19:10:34.455Z,10.60
2023-04-03T19:13:02.224Z,10.50
2023-04-03T19:15:29.924Z,10.50
2023-04-03T19:17:59.089Z,10.50
2023-04-03T19:20:27.049Z,10.40
2023-04-03T19:22:55.251Z,10.30
2023-04-03T19:25:23.363Z,10.30
2023-04-03T19:27:51.419Z,10.30
2023-04-03T19:30:19.213Z,10.30
2023-04-03T19:32:47.650Z,10.30
2023-04-03T19:35:16.804Z,10.30
2023-04-03T19:37:47.740Z,10.20
2023-04-03T19:40:15.812Z,10.10
2023-04-03T19:42:43.601Z,10.10
2023-04-03T19:45:12.225Z,10.10
2023-04-03T19:47:40.138Z,10.00
2023-04-03T19:50:08.623Z,9.90
2023-04-03T19:52:37.822Z,9.90
2023-04-03T19:55:06.238Z,9.80
2023-04-03T19:57:34.129Z,9.70
2023-04-03T20:00:02.093Z,9.60
2023-04-03T20:02:29.810Z,9.50
2023-04-03T20:04:57.615Z,9.50
2023-04-03T20:07:25.895Z,9.50
2023-04-03T20:09:55.017Z,9.60
2023-04-03T20:12:22.768Z,9.70
2023-04-03T20:14:51.040Z,9.80
2023-04-03T20:17:18.849Z,9.80
2023-04-03T20:19:46.641Z,9.90
2023-04-03T20:22:14.382Z,9.90
2023-04-03T20:24:42.675Z,9.80
2023-04-03T20:27:11.902Z,9.70
2023-04-03T20:29:39.971Z,9.80
2023-04-03T20:32:10.592Z,9.80
2023-04-03T20:34:38.803Z,9.70
2023-04-03T20:37:06.808Z,9.60
2023-04-03T20:39:34.714Z,9.70
2023-04-03T20:42:03.906Z,9.60
2023-04-03T20:44:33.048Z,9.50
2023-04-03T20:47:00.826Z,9.60
2023-04-03T20:49:28.684Z,9.60
2023-04-03T20:51:56.434Z,9.50
2023-04-03T20:54:24.726Z,9.60
2023-04-03T20:56:52.770Z,9.50
2023-04-03T20:59:20.818Z,9.50
2023-04-03T21:01:50.005Z,9.40
2023-04-03T21:04:23.044Z,9.60
2023-04-03T21:07:28.410Z,9.40
2023-04-03T21:10:33.550Z,9.30
2023-04-03T21:13:38.954Z,9.30
2023-04-03T21:16:06.377Z,9.30
2023-04-03T21:18:55.391Z,9.30
2023-04-03T21:21:26.071Z,9.30
2023-04-03T21:23:55.397Z,9.30
2023-04-03T21:26:24.106Z,9.20
2023-04-03T21:28:52.714Z,9.30
2023-04-03T21:31:21.933Z,9.20
2023-04-03T21:33:49.873Z,9.10
2023-04-03T21:36:18.909Z,9.20
2023-04-03T21:38:47.658Z,9.10
2023-04-03T21:41:15.486Z,9.30
2023-04-03T21:43:43.196Z,9.30
2023-04-03T21:46:10.985Z,9.20
2023-04-03T21:48:39.225Z,8.90
2023-04-03T21:51:08.310Z,8.90
2023-04-03T21:53:38.297Z,9.00
2023-04-03T21:56:07.175Z,9.00
2023-04-03T21:58:35.125Z,8.80
2023-04-03T22:01:11.389Z,8.80
2023-04-03T22:03:39.400Z,8.70
2023-04-03T22:06:07.435Z,8.70
2023-04-03T22:08:35.349Z,8.70
2023-04-03T22:11:05.899Z,8.60
2023-04-03T22:13:34.228Z,8.60
2023-04-03T22:16:02.498Z,8.50
2023-04-03T22:18:30.572Z,8.60
2023-04-03T22:20:58.404Z,8.50
2023-04-03T22:23:27.246Z,8.60
2023-04-03T22:25:59.477Z,8.60
2023-04-03T22:28:29.079Z,8.50
2023-04-03T22:30:57.246Z,8.40
2023-04-03T22:33:24.944Z,8.50
2023-04-03T22:35:52.841Z,8.40
2023-04-03T22:38:20.536Z,8.40
2023-04-03T22:40:48.429Z,8.30
2023-04-03T22:43:16.296Z,8.40
2023-04-03T22:45:51.302Z,8.30
2023-04-03T22:48:19.024Z,8.00
2023-04-03T22:50:46.949Z,8.00
2023-04-03T22:53:14.602Z,8.10
2023-04-03T22:55:42.442Z,8.10
2023-04-03T22:58:10.180Z,8.20
2023-04-03T23:00:37.927Z,8.20
2023-04-03T23:03:09.372Z,8.10
2023-04-03T23:05:40.168Z,8.10
2023-04-03T23:08:07.846Z,8.00
2023-04-03T23:10:35.603Z,7.90
2023-04-03T23:13:03.352Z,7.90
2023-04-03T23:15:31.071Z,7.90
2023-04-03T23:17:58.753Z,7.80
2023-04-03T23:20:27.894Z,7.80
2023-04-03T23:22:55.571Z,7.70
2023-04-03T23:25:23.240Z,7.50
2023-04-03T23:27:52.528Z,7.50
2023-04-03T23:30:20.635Z,7.50
2023-04-03T23:32:48.669Z,7.50
2023-04-03T23:35:16.659Z,7.40
2023-04-03T23:37:45.713Z,7.50
2023-04-03T23:40:13.944Z,7.40
2023-04-03T23:42:42.293Z,7.30
2023-04-03T23:45:10.736Z,7.20
2023-04-03T23:47:38.519Z,7.30
2023-04-03T23:50:07.392Z,7.40
2023-04-03T23:52:35.112Z,7.10
2023-04-03T23:55:04.515Z,7.10
2023-04-03T23:57:32.261Z,7.10
2023-04-03T23:59:59.899Z,7.20
